Time;durP1;ratioP1;P1;durP2;ratioP2;P2;SDS_P1;SDS_P2;PMS_P1;PMS_P2;Temp;Humidity;BMP_temperature;BMP_pressure;BME280_temperature;BME280_humidity;BME280_pressure;Samples;Min_cycle;Max_cycle;Signal;HPM_P1;HPM_P2
2021/09/20 00:06:21;;;;;;;2.60;2.40;;;;;;;7.49;100.00;100498.63;20903474;28;20242;-71
2021/09/20 00:16:25;;;;;;;2.10;2.00;;;;;;;7.57;100.00;100505.28;20885428;28;20235;-72
2021/09/20 00:26:27;;;;;;;2.53;2.37;;;;;;;7.67;100.00;100512.81;20897073;28;20722;-72
2021/09/20 00:36:31;;;;;;;2.33;2.17;;;;;;;7.67;100.00;100511.00;20891318;28;20251;-72
2021/09/20 00:46:33;;;;;;;2.40;2.20;;;;;;;7.73;100.00;100512.53;20888910;28;20228;-72
2021/09/20 00:56:37;;;;;;;1.40;1.40;;;;;;;7.70;100.00;100517.97;20898583;28;20226;-72
2021/09/20 01:06:40;;;;;;;1.37;1.30;;;;;;;7.71;100.00;100517.91;20879020;28;20221;-72
2021/09/20 01:16:43;;;;;;;1.37;1.27;;;;;;;7.73;100.00;100528.47;20898656;28;20335;-70
2021/09/20 01:26:47;;;;;;;2.00;1.90;;;;;;;7.74;100.00;100508.91;20910028;28;20227;-69
2021/09/20 01:36:51;;;;;;;1.80;1.70;;;;;;;7.74;100.00;100492.97;20910415;28;20278;-70
2021/09/20 01:46:57;;;;;;;1.53;1.43;;;;;;;7.73;100.00;100501.88;20912585;28;20706;-70
2021/09/20 01:56:59;;;;;;;2.90;1.60;;;;;;;7.66;100.00;100506.63;20905180;28;20301;-70
2021/09/20 02:07:03;;;;;;;1.20;1.20;;;;;;;7.56;100.00;100511.53;20883818;28;20989;-71
2021/09/20 02:17:05;;;;;;;1.60;1.50;;;;;;;7.53;100.00;100517.00;20882867;28;20332;-72
2021/09/20 02:27:09;;;;;;;1.97;1.50;;;;;;;7.45;100.00;100516.50;20887700;28;20251;-72
2021/09/20 02:37:12;;;;;;;1.40;1.30;;;;;;;7.38;100.00;100499.13;20874362;28;20344;-71
2021/09/20 02:47:16;;;;;;;1.50;1.40;;;;;;;7.37;100.00;100494.75;20892113;28;20712;-71
2021/09/20 02:57:18;;;;;;;1.30;1.30;;;;;;;7.44;100.00;100496.19;20869592;28;20231;-72
2021/09/20 03:07:22;;;;;;;1.73;1.40;;;;;;;7.41;100.00;100493.69;20891312;28;20232;-72
2021/09/20 03:17:24;;;;;;;1.40;1.30;;;;;;;7.38;100.00;100496.47;20892333;28;20227;-71
2021/09/20 03:27:28;;;;;;;1.57;1.47;;;;;;;7.39;100.00;100503.50;20888784;28;20280;-71
2021/09/20 03:37:30;;;;;;;1.20;1.20;;;;;;;7.39;100.00;100498.22;20878246;28;20240;-72
2021/09/20 03:47:34;;;;;;;1.23;1.10;;;;;;;7.40;100.00;100505.25;20881314;28;20228;-71
2021/09/20 03:57:36;;;;;;;1.40;1.30;;;;;;;7.43;100.00;100506.91;20884734;28;20286;-72
2021/09/20 04:07:41;;;;;;;1.30;1.20;;;;;;;7.41;100.00;100517.59;20803821;28;20654;-72
2021/09/20 04:17:44;;;;;;;0.93;0.93;;;;;;;7.46;100.00;100515.59;20820402;28;20304;-72
2021/09/20 04:27:48;;;;;;;1.33;1.23;;;;;;;7.46;100.00;100525.34;20798089;28;20305;-71
2021/09/20 04:37:52;;;;;;;1.83;1.47;;;;;;;7.50;100.00;100526.88;20823523;28;20221;-72
2021/09/20 04:47:56;;;;;;;1.30;1.00;;;;;;;7.50;100.00;100529.53;20836898;28;20326;-72
2021/09/20 04:57:58;;;;;;;1.57;1.07;;;;;;;7.43;100.00;100542.28;20857513;28;20244;-71
2021/09/20 05:08:02;;;;;;;1.43;1.27;;;;;;;7.38;100.00;100548.72;20877676;28;20233;-72
2021/09/20 05:18:05;;;;;;;1.53;1.43;;;;;;;6.90;100.00;100557.16;20889648;28;20259;-72
2021/09/20 05:28:09;;;;;;;1.70;1.60;;;;;;;6.76;100.00;100577.22;20883896;28;20235;-72
2021/09/20 05:38:12;;;;;;;2.07;1.50;;;;;;;6.72;100.00;100565.03;20801641;28;20329;-73
2021/09/20 05:48:18;;;;;;;2.20;2.00;;;;;;;6.80;100.00;100568.19;20790786;28;20335;-73
2021/09/20 05:58:20;;;;;;;2.20;1.70;;;;;;;6.85;100.00;100560.91;20791138;28;20294;-73
2021/09/20 06:08:24;;;;;;;2.60;2.43;;;;;;;7.18;100.00;100553.19;20811686;28;20245;-73
2021/09/20 06:18:26;;;;;;;1.30;1.20;;;;;;;7.54;100.00;100552.38;20789496;28;20239;-72
2021/09/20 06:28:30;;;;;;;1.10;1.00;;;;;;;7.37;100.00;100553.16;20810397;28;20317;-72
2021/09/20 06:38:33;;;;;;;3.17;1.00;;;;;;;7.22;100.00;100565.38;20794310;28;20229;-71
2021/09/20 06:48:38;;;;;;;0.80;0.80;;;;;;;7.42;100.00;100567.09;20804749;28;20227;-72
2021/09/20 06:58:41;;;;;;;0.80;0.57;;;;;;;8.03;100.00;100568.56;20817454;28;20259;-72
2021/09/20 07:08:44;;;;;;;0.53;0.50;;;;;;;8.29;100.00;100581.41;20723048;28;20226;-72
2021/09/20 07:18:47;;;;;;;0.47;0.40;;;;;;;9.16;100.00;100579.53;20727038;28;20248;-72
2021/09/20 07:28:50;;;;;;;0.40;0.40;;;;;;;9.48;100.00;100586.63;20727356;28;20697;-72
2021/09/20 07:38:53;;;;;;;0.50;0.50;;;;;;;9.48;100.00;100591.94;20737765;28;20233;-72
2021/09/20 07:48:57;;;;;;;0.53;0.50;;;;;;;9.65;100.00;100591.88;20719693;28;20229;-72
2021/09/20 07:59:00;;;;;;;0.60;0.60;;;;;;;9.49;100.00;100596.31;20741348;28;20235;-72
2021/09/20 08:09:04;;;;;;;1.13;1.10;;;;;;;9.18;100.00;100598.94;20803729;28;20236;-71
2021/09/20 08:19:06;;;;;;;1.10;1.00;;;;;;;9.12;100.00;100620.56;20815526;28;20323;-72
2021/09/20 08:29:10;;;;;;;1.73;0.80;;;;;;;9.56;100.00;100627.00;20809927;28;20274;-71
2021/09/20 08:39:12;;;;;;;0.97;0.97;;;;;;;10.25;100.00;100621.34;20806975;28;20274;-71
2021/09/20 08:49:16;;;;;;;1.20;1.10;;;;;;;10.04;100.00;100627.84;20815331;28;20308;-71
2021/09/20 08:59:19;;;;;;;1.47;1.37;;;;;;;9.26;100.00;100618.91;20797310;28;20235;-71
2021/09/20 09:09:32;;;;;;;1.33;1.23;;;;;;;9.23;100.00;100624.38;20816930;28;20308;-71
2021/09/20 09:19:42;;;;;;;1.37;1.33;;;;;;;9.60;100.00;100615.25;20793570;28;20234;-71
2021/09/20 09:29:48;;;;;;;1.70;1.43;;;;;;;9.98;100.00;100633.56;20776120;28;20430;-71
2021/09/20 09:39:53;;;;;;;1.23;1.20;;;;;;;9.47;100.00;100631.97;20713651;28;20880;-71
2021/09/20 09:50:21;;;;;;;1.37;1.27;;;;;;;9.51;100.00;100631.75;20729199;28;20633;-72
2021/09/20 10:00:23;;;;;;;1.67;1.43;;;;;;;9.69;100.00;100638.69;20784425;28;20252;-72
2021/09/20 10:10:29;;;;;;;2.30;2.10;;;;;;;9.33;100.00;100651.38;20744713;28;20224;-72
2021/09/20 10:20:32;;;;;;;4.43;2.00;;;;;;;8.99;100.00;100665.63;20722683;28;20585;-72
2021/09/20 10:30:36;;;;;;;2.27;2.10;;;;;;;9.09;100.00;100652.66;20713737;28;20624;-72
2021/09/20 10:40:38;;;;;;;2.43;2.10;;;;;;;10.24;100.00;100656.97;20728582;28;20233;-72
2021/09/20 10:50:46;;;;;;;3.33;1.70;;;;;;;10.48;100.00;100664.50;20705900;28;20311;-71
2021/09/20 11:00:49;;;;;;;1.93;1.83;;;;;;;9.80;100.00;100661.22;20782814;28;20239;-72
2021/09/20 11:10:53;;;;;;;1.80;1.70;;;;;;;9.74;100.00;100667.78;20809229;28;20227;-72
2021/09/20 11:21:05;;;;;;;2.13;1.63;;;;;;;9.99;100.00;100673.47;20905632;28;20227;-72
2021/09/20 11:31:09;;;;;;;1.60;1.50;;;;;;;9.85;100.00;100675.16;20890091;28;20269;-73
2021/09/20 11:41:23;;;;;;;1.53;1.43;;;;;;;9.80;100.00;100682.53;20899636;28;20772;-72
2021/09/20 11:51:27;;;;;;;3.50;2.13;;;;;;;9.96;100.00;100688.75;20895120;28;20227;-72
2021/09/20 12:01:30;;;;;;;1.70;1.60;;;;;;;9.82;100.00;100701.97;20891508;28;20230;-72
2021/09/20 12:11:34;;;;;;;1.63;1.53;;;;;;;9.83;100.00;100701.03;20902135;28;20216;-72
2021/09/20 12:21:36;;;;;;;1.73;1.63;;;;;;;9.88;100.00;100712.31;20881102;28;20241;-72
2021/09/20 12:31:43;;;;;;;2.23;1.60;;;;;;;10.08;100.00;100714.72;20901403;28;20227;-73
2021/09/20 12:41:49;;;;;;;2.50;1.60;;;;;;;9.94;100.00;100710.16;20879442;28;20247;-71
2021/09/20 12:51:52;;;;;;;3.70;1.80;;;;;;;9.75;100.00;100734.31;20885617;28;20710;-73
2021/09/20 13:01:57;;;;;;;2.00;1.90;;;;;;;10.03;100.00;100725.66;20856829;28;20319;-73
2021/09/20 13:12:12;;;;;;;1.93;1.83;;;;;;;10.15;100.00;100737.44;20869402;28;20219;-74
2021/09/20 13:22:15;;;;;;;2.70;2.10;;;;;;;10.06;100.00;100727.28;20862994;28;20308;-72
2021/09/20 13:32:21;;;;;;;2.10;2.00;;;;;;;10.54;100.00;100738.84;20861014;28;20314;-73
2021/09/20 13:42:23;;;;;;;1.97;1.87;;;;;;;10.83;100.00;100724.66;20867447;28;20223;-71
2021/09/20 13:52:31;;;;;;;1.90;1.80;;;;;;;11.00;100.00;100753.88;20842190;28;20223;-72
2021/09/20 14:02:37;;;;;;;1.80;1.70;;;;;;;10.69;100.00;100769.97;20857729;28;20230;-68
2021/09/20 14:12:41;;;;;;;1.50;1.30;;;;;;;10.06;100.00;100780.63;20846223;28;20247;-65
2021/09/20 14:22:44;;;;;;;2.13;0.90;;;;;;;9.83;100.00;100783.66;20863381;28;20231;-65
2021/09/20 14:32:48;;;;;;;1.67;1.10;;;;;;;9.56;100.00;100802.84;20842380;28;21455;-66
2021/09/20 15:12:48;;;;;;;5.00;1.70;;;;;;;8.98;100.00;100851.06;20972279;27;20559;-68
2021/09/20 15:22:51;;;;;;;1.90;1.80;;;;;;;9.07;100.00;100856.88;20964789;28;20231;-68
2021/09/20 15:32:56;;;;;;;1.57;1.47;;;;;;;9.05;100.00;100864.97;20995771;28;20642;-68
2021/09/20 15:43:00;;;;;;;2.07;1.57;;;;;;;8.99;100.00;100876.75;21029369;28;20990;-68
2021/09/20 16:03:06;;;;;;;1.70;1.60;;;;;;;8.77;100.00;100873.41;20877803;27;20593;-66
2021/09/20 16:13:11;;;;;;;2.10;2.00;;;;;;;8.93;100.00;100858.44;20901859;28;20241;-67
2021/09/20 16:23:18;;;;;;;1.37;1.30;;;;;;;8.92;100.00;100859.38;20907184;28;20233;-67
2021/09/20 16:33:20;;;;;;;1.60;1.50;;;;;;;8.55;100.00;100880.69;20909890;28;20764;-68
2021/09/20 16:43:27;;;;;;;1.90;1.80;;;;;;;8.17;100.00;100891.28;20902584;28;20232;-68
2021/09/20 16:53:32;;;;;;;3.00;2.70;;;;;;;7.90;100.00;100895.16;20899314;28;20272;-68
2021/09/20 17:03:37;;;;;;;2.10;2.00;;;;;;;7.45;100.00;100900.66;20906264;28;20298;-68
2021/09/20 17:13:41;;;;;;;2.20;2.10;;;;;;;6.97;100.00;100901.75;20830042;28;20232;-65
2021/09/20 17:23:55;;;;;;;3.10;2.80;;;;;;;6.88;100.00;100914.53;20834573;28;20753;-69
2021/09/20 17:33:58;;;;;;;2.90;2.70;;;;;;;6.88;100.00;100917.19;20825662;28;20243;-64
2021/09/20 17:44:07;;;;;;;2.47;2.27;;;;;;;6.63;100.00;100904.88;20838241;28;20572;-66
2021/09/20 17:54:15;;;;;;;2.27;2.07;;;;;;;6.32;100.00;100918.41;20918358;28;21227;-67
2021/09/20 18:04:28;;;;;;;3.80;3.50;;;;;;;6.18;100.00;100923.34;20927384;28;20234;-68
2021/09/20 18:14:32;;;;;;;6.80;6.10;;;;;;;6.10;100.00;100917.47;20920357;28;20269;-68
2021/09/20 18:24:50;;;;;;;6.17;5.57;;;;;;;6.20;100.00;100925.94;20865568;28;20231;-68
2021/09/20 18:44:52;;;;;;;8.10;6.60;;;;;;;5.50;100.00;100934.56;21122281;27;20578;-70
2021/09/20 18:55:00;;;;;;;6.80;6.17;;;;;;;5.35;100.00;100954.44;21150848;27;20236;-68
2021/09/20 19:05:25;;;;;;;5.87;5.33;;;;;;;5.36;100.00;100953.53;21152926;27;20220;-69
2021/09/20 19:15:33;;;;;;;6.70;6.00;;;;;;;5.42;100.00;100961.28;21128612;27;20710;-67
2021/09/20 19:25:58;;;;;;;6.80;6.10;;;;;;;5.37;100.00;100970.28;21060158;22;20229;-68
2021/09/20 19:36:09;;;;;;;6.50;5.90;;;;;;;5.57;100.00;100966.97;21061936;28;20308;-67
2021/09/20 19:46:16;;;;;;;6.87;6.17;;;;;;;5.77;100.00;100980.41;21002181;28;20222;-67
2021/09/20 19:56:20;;;;;;;6.60;6.00;;;;;;;5.78;100.00;100974.22;20996030;28;20317;-66
2021/09/20 20:06:24;;;;;;;5.30;4.80;;;;;;;5.82;100.00;100978.47;21020272;28;20226;-66
2021/09/20 20:16:27;;;;;;;7.17;6.47;;;;;;;5.91;100.00;100988.81;21020733;28;20245;-67
2021/09/20 20:26:33;;;;;;;6.50;5.90;;;;;;;6.20;100.00;100984.25;21004389;28;20362;-67
2021/09/20 20:36:36;;;;;;;7.30;5.83;;;;;;;6.32;100.00;100999.72;21027800;28;20316;-66
2021/09/20 20:56:38;;;;;;;9.53;7.87;;;;;;;6.29;100.00;100994.50;20766178;27;20572;-66
2021/09/20 21:06:40;;;;;;;6.90;5.90;;;;;;;5.87;100.00;100997.72;20754811;28;20309;-67
2021/09/20 21:16:44;;;;;;;7.10;6.40;;;;;;;5.44;100.00;100993.84;20753585;28;20247;-66
2021/09/20 21:26:47;;;;;;;8.90;6.63;;;;;;;5.21;100.00;100996.34;20754260;28;20232;-66
2021/09/20 21:36:50;;;;;;;6.03;5.47;;;;;;;5.01;100.00;101001.41;20758694;28;20625;-66
2021/09/20 21:46:53;;;;;;;7.10;6.37;;;;;;;4.79;100.00;101002.97;20751624;28;20957;-66
2021/09/20 21:56:57;;;;;;;8.73;7.83;;;;;;;4.78;100.00;100996.81;20751968;28;20226;-66
2021/09/20 22:06:59;;;;;;;10.63;9.60;;;;;;;4.77;100.00;101004.78;20705256;28;20233;-66
2021/09/20 22:17:04;;;;;;;11.13;9.93;;;;;;;4.67;100.00;101010.34;20698488;28;20264;-67
2021/09/20 22:27:07;;;;;;;11.73;10.53;;;;;;;4.66;100.00;101019.19;20700520;28;20247;-66
2021/09/20 22:37:12;;;;;;;11.37;10.17;;;;;;;4.63;100.00;101024.56;20692457;28;20243;-66
2021/09/20 22:47:15;;;;;;;11.10;9.80;;;;;;;4.92;100.00;101031.66;20699376;28;20236;-66
2021/09/20 22:57:18;;;;;;;10.20;8.40;;;;;;;5.42;100.00;101026.59;20696551;28;20236;-66
2021/09/20 23:17:25;;;;;;;10.10;8.90;;;;;;;5.22;100.00;101018.38;20902640;27;20577;-66
2021/09/20 23:37:25;;;;;;;9.43;8.17;;;;;;;4.93;100.00;101006.06;20829313;27;21141;-66
2021/09/20 23:47:28;;;;;;;11.93;9.30;;;;;;;4.84;100.00;101022.19;20813055;28;20229;-67
2021/09/20 23:57:32;;;;;;;13.43;9.83;;;;;;;4.85;100.00;101023.94;20814985;28;20230;-66
